Clyde River Airport
CYCY : now visible

Airfield :











YOU CAN JOIN US ON...

 
LOGIN :

Register | Disclaimer

   EN    FR    IT 

 









Legend :    VFR   Marginal VFR   IFR   Intensive IFR   Very Intensive IFR
Visi :
Ceiling :
>= 8 km
>= 3000ft
5 to 8 km
1000 to 3000 ft
1500m to 5 km
500 to 1000 ft
800 to 1500m
200 to 500 ft
< 800m
< 200 ft
Symbols :   Thunderstorms  Fog  Heavy snow  Heavy precipitations  Wind > 20 kt






- Airport Elevation : 87 ft
- IATA code : YCY


CYCY - Clyde River

CURRENT METAR :
  • 060517Z AUTO 30013KT 2SM -SN OVC034 M21/M24 A2961 RMK SLP034

EXPIRED METARs :
  • 060500Z AUTO 30013KT 2 1/2SM -SN OVC036 M21/M24 A2961 RMK SLP034
  • 060457Z AUTO 30013KT 2 1/4SM -SN OVC036 M21/M24 A2961 RMK SLP033
  • 060436Z AUTO 30013KT 2SM -SN OVC032 M21/M24 A2961 RMK SLP034
  • 060415Z AUTO 30013KT 3SM -SN SCT017 OVC044 M21/M24 A2961 RMK SLP034
  • 060336Z AUTO 31012KT 9SM -SN BKN021 OVC041 M21/M24 A2962 RMK SLP036
  • 060323Z AUTO 31012KT 6SM -SN OVC037 M22/M24 A2962 RMK SLP035
  • 060312Z AUTO 31013KT 1 1/2SM -SN FEW022 OVC027 M21/M24 A2961 RMK SLP034
  • 060258Z AUTO 31012KT 3SM -SN OVC025 M21/M24 A2962 RMK SLP035
  • 060246Z AUTO 31013KT 4SM -SN BKN022 OVC035 M21/M24 A2962 RMK SLP036

TAF AMD TAF CYCY
Valid from the 06 at 04:00 until the 06 at 13:00 UTC


060456Z 0604/0613 30012KT P6SM -SN OVC030
TEMPO 0604/0610 2SM -SN OVC020
FM061000 31008KT P6SM BKN025 OVC080
TEMPO 0610/0613 4SM -SN BKN020 OVC080 RMK FCST BASED ON AUTO OBS. NXT FCST BY 060700Z



MET'MAP, your aeronautical weather chart ! - Copyright ORBIFLY December 2007 - Disclaimer

ORBIFLY MET'MAP TEAM :

Programming & Development : Alexandra Zaïnal
Concept & original design : Baudouin d'Aumeries
Assistance for programming : Marc-Olivier Méhu
Technical & hardware support : Manuel Goepfert

Contact : metmap@orbifly.com




SOURCES & CREDITS :

   NOAA       Earth
Advisory